createdAt,value
2019-01-08T00:00:03.740Z,33.73
2019-01-08T00:02:35.571Z,34.07
2019-01-08T00:05:06.053Z,32.10
2019-01-08T00:07:36.534Z,33.00
2019-01-08T00:10:07.420Z,33.37
2019-01-08T00:12:37.917Z,33.53
2019-01-08T00:15:08.471Z,33.03
2019-01-08T00:17:38.960Z,32.07
2019-01-08T00:20:09.434Z,31.97
2019-01-08T00:22:40.316Z,32.30
2019-01-08T00:25:10.777Z,33.10
2019-01-08T00:27:41.385Z,31.00
2019-01-08T00:30:11.858Z,31.30
2019-01-08T00:32:42.328Z,33.43
2019-01-08T00:35:12.785Z,32.47
2019-01-08T00:37:43.358Z,30.00
2019-01-08T00:40:14.669Z,31.30
2019-01-08T00:42:45.233Z,31.00
2019-01-08T00:45:15.699Z,30.73
2019-01-08T00:47:46.229Z,31.30
2019-01-08T00:50:16.957Z,29.97
2019-01-08T00:52:47.423Z,30.20
2019-01-08T00:55:18.265Z,28.87
2019-01-08T00:57:49.235Z,29.80
2019-01-08T01:00:19.711Z,29.43
2019-01-08T01:02:50.783Z,29.57
2019-01-08T01:05:21.297Z,28.13
2019-01-08T01:07:52.133Z,28.87
2019-01-08T01:10:22.737Z,29.63
2019-01-08T01:12:53.217Z,27.23
2019-01-08T01:15:23.747Z,28.00
2019-01-08T01:17:54.187Z,27.00
2019-01-08T01:20:24.988Z,28.07
2019-01-08T01:22:55.354Z,28.33
2019-01-08T01:25:25.857Z,26.83
2019-01-08T01:27:56.413Z,27.90
2019-01-08T01:30:26.885Z,27.50
2019-01-08T01:32:58.578Z,28.07
2019-01-08T01:35:29.027Z,27.73
2019-01-08T01:37:59.832Z,28.27
2019-01-08T01:40:30.366Z,25.50
2019-01-08T01:43:00.947Z,26.47
2019-01-08T01:45:31.456Z,27.90
2019-01-08T01:48:02.192Z,25.33
2019-01-08T01:50:32.730Z,26.53
2019-01-08T01:53:03.248Z,26.67
2019-01-08T01:55:45.974Z,25.67
2019-01-08T01:58:16.772Z,24.17
2019-01-08T02:00:47.330Z,26.20
2019-01-08T02:03:18.170Z,23.47
2019-01-08T02:05:48.699Z,24.53
2019-01-08T02:08:19.266Z,24.43
2019-01-08T02:10:49.761Z,24.47
2019-01-08T02:13:20.257Z,25.57
2019-01-08T02:15:51.134Z,26.17
2019-01-08T02:18:21.621Z,23.40
2019-01-08T02:20:52.556Z,24.17
2019-01-08T02:23:23.388Z,23.63
2019-01-08T02:25:54.146Z,25.07
2019-01-08T02:28:24.723Z,23.83
2019-01-08T02:30:55.237Z,22.27
2019-01-08T02:33:26.095Z,23.30
2019-01-08T02:35:56.547Z,22.37
2019-01-08T02:38:27.477Z,22.07
2019-01-08T02:40:57.957Z,23.30
2019-01-08T02:43:28.581Z,23.13
2019-01-08T02:45:59.150Z,23.13
2019-01-08T02:48:29.675Z,24.10
2019-01-08T02:51:00.240Z,23.23
2019-01-08T02:53:30.713Z,21.47
2019-01-08T02:56:01.222Z,23.70
2019-01-08T02:58:32.185Z,23.07
2019-01-08T03:01:02.751Z,23.50
2019-01-08T03:03:33.633Z,23.93
2019-01-08T03:06:04.177Z,23.03
2019-01-08T03:08:34.732Z,21.97
2019-01-08T03:11:05.268Z,23.53
2019-01-08T03:13:36.273Z,22.00
2019-01-08T03:16:06.840Z,22.03
2019-01-08T03:18:36.728Z,21.90
2019-01-08T03:21:08.227Z,20.80
2019-01-08T03:23:38.732Z,20.57
2019-01-08T03:26:09.258Z,21.67
2019-01-08T03:28:40.132Z,21.63
2019-01-08T03:31:10.711Z,20.87
2019-01-08T03:33:41.637Z,23.27
2019-01-08T03:36:12.200Z,21.03
2019-01-08T03:38:42.746Z,22.23
2019-01-08T03:41:13.172Z,22.90
2019-01-08T03:43:43.803Z,22.47
2019-01-08T03:46:14.259Z,22.60
2019-01-08T03:48:44.774Z,23.87
2019-01-08T03:51:15.279Z,24.27
2019-01-08T03:53:46.171Z,20.53
2019-01-08T03:56:16.739Z,21.90
2019-01-08T03:58:48.553Z,22.47
2019-01-08T04:01:19.489Z,22.23
2019-01-08T04:03:50.017Z,23.37
2019-01-08T04:06:20.665Z,23.90
2019-01-08T04:08:51.257Z,24.90
2019-01-08T04:11:21.945Z,23.33
2019-01-08T04:13:52.607Z,24.90
2019-01-08T04:16:23.125Z,24.23
2019-01-08T04:18:53.867Z,23.87
2019-01-08T04:21:24.754Z,24.57
2019-01-08T04:23:55.281Z,23.50
2019-01-08T04:26:26.917Z,23.00
2019-01-08T04:28:57.475Z,23.17
2019-01-08T04:31:35.272Z,21.10
2019-01-08T04:34:05.791Z,20.20
2019-01-08T04:36:36.374Z,22.57
2019-01-08T04:39:07.388Z,23.13
2019-01-08T04:41:38.157Z,23.73
2019-01-08T04:44:08.749Z,24.60
2019-01-08T04:46:39.709Z,23.23
2019-01-08T04:49:10.228Z,24.20
2019-01-08T04:51:40.820Z,24.63
2019-01-08T04:54:11.324Z,24.10
2019-01-08T04:56:41.748Z,25.43
2019-01-08T04:59:12.760Z,25.00
2019-01-08T05:01:47.946Z,23.23
2019-01-08T05:04:18.717Z,25.07
2019-01-08T05:06:49.550Z,24.57
2019-01-08T05:09:20.122Z,25.40
2019-01-08T05:11:50.613Z,24.60
2019-01-08T05:14:24.398Z,24.70
2019-01-08T05:16:55.054Z,25.13
2019-01-08T05:19:25.652Z,25.13
2019-01-08T05:21:56.546Z,24.87
2019-01-08T05:24:27.592Z,25.57
2019-01-08T05:26:58.251Z,24.67
2019-01-08T05:29:28.991Z,25.53
2019-01-08T05:35:46.023Z,23.47
2019-01-08T05:38:16.603Z,23.07
2019-01-08T05:40:47.373Z,22.13
2019-01-08T05:43:18.055Z,22.43
2019-01-08T05:45:48.595Z,23.57
2019-01-08T05:48:19.098Z,22.97
2019-01-08T05:50:49.545Z,23.47
2019-01-08T05:53:20.081Z,24.00
2019-01-08T05:55:50.665Z,24.00
2019-01-08T05:58:21.128Z,22.67
2019-01-08T06:00:52.111Z,22.67
2019-01-08T06:03:48.229Z,23.80
2019-01-08T06:06:18.777Z,23.50
2019-01-08T06:08:49.321Z,22.07
2019-01-08T06:11:19.871Z,23.80
2019-01-08T06:13:50.489Z,23.57
2019-01-08T06:16:20.988Z,22.90
2019-01-08T06:18:51.559Z,24.87
2019-01-08T06:21:22.123Z,23.70
2019-01-08T06:23:52.644Z,25.43
2019-01-08T06:26:23.404Z,25.07
2019-01-08T06:28:55.288Z,24.87
2019-01-08T06:31:26.131Z,24.97
2019-01-08T06:33:56.723Z,25.93
2019-01-08T06:36:27.989Z,27.70
2019-01-08T06:38:58.496Z,25.63
2019-01-08T06:41:29.254Z,24.30
2019-01-08T06:43:59.780Z,26.13
2019-01-08T06:46:30.290Z,25.17
2019-01-08T06:49:00.764Z,25.23
2019-01-08T06:51:31.674Z,24.17
2019-01-08T06:54:02.110Z,25.37
2019-01-08T06:56:32.958Z,27.43
2019-01-08T06:59:03.622Z,25.87
2019-01-08T07:01:34.136Z,25.77
2019-01-08T07:04:04.650Z,25.63
2019-01-08T07:06:35.286Z,27.20
2019-01-08T07:09:07.174Z,28.10
2019-01-08T07:11:38.086Z,28.60
2019-01-08T07:14:08.790Z,28.33
2019-01-08T07:16:39.418Z,27.37
2019-01-08T07:19:10.255Z,28.83
2019-01-08T07:21:41.154Z,26.10
2019-01-08T07:24:11.826Z,24.27
2019-01-08T07:26:42.683Z,27.17
2019-01-08T07:29:13.183Z,28.77
2019-01-08T07:31:43.697Z,28.70
2019-01-08T07:34:14.399Z,28.83
2019-01-08T07:36:44.974Z,30.70
2019-01-08T07:39:15.889Z,30.63
2019-01-08T07:41:46.395Z,28.63
2019-01-08T07:44:17.145Z,28.80
2019-01-08T07:46:47.645Z,29.93
2019-01-08T07:49:18.157Z,28.60
2019-01-08T07:51:48.755Z,28.57
2019-01-08T07:54:19.254Z,29.10
2019-01-08T07:56:49.854Z,31.57
2019-01-08T07:59:20.447Z,27.13
2019-01-08T08:01:51.029Z,29.47
2019-01-08T08:04:21.659Z,29.63
2019-01-08T08:06:52.304Z,30.10
2019-01-08T08:09:22.923Z,30.97
2019-01-08T08:11:53.556Z,30.73
2019-01-08T08:14:24.670Z,32.27
2019-01-08T08:16:55.434Z,31.40
2019-01-08T08:19:25.968Z,29.53
2019-01-08T08:21:56.488Z,29.43
2019-01-08T08:24:27.106Z,29.40
2019-01-08T08:26:58.044Z,28.90
2019-01-08T08:29:28.691Z,28.50
2019-01-08T08:31:59.564Z,29.90
2019-01-08T08:34:30.221Z,29.50
2019-01-08T08:37:01.345Z,29.77
2019-01-08T08:39:31.910Z,28.80
2019-01-08T08:42:04.982Z,28.73
2019-01-08T08:44:35.503Z,34.20
2019-01-08T08:47:06.164Z,29.57
2019-01-08T08:49:36.703Z,30.53
2019-01-08T08:52:08.303Z,32.67
2019-01-08T08:54:38.840Z,31.40
2019-01-08T08:57:09.370Z,33.50
2019-01-08T08:59:39.863Z,32.37
2019-01-08T09:02:10.353Z,31.43
2019-01-08T09:04:40.807Z,34.00
2019-01-08T09:07:11.359Z,33.70
2019-01-08T09:09:41.859Z,32.37
2019-01-08T09:12:12.527Z,31.93
2019-01-08T09:14:43.151Z,32.03
2019-01-08T09:17:13.793Z,32.50
2019-01-08T09:19:44.317Z,33.90
2019-01-08T09:22:15.416Z,33.43
2019-01-08T09:24:45.903Z,33.60
2019-01-08T09:27:16.529Z,34.60
2019-01-08T09:29:47.032Z,36.37
2019-01-08T09:32:17.557Z,35.97
2019-01-08T09:34:48.163Z,35.37
2019-01-08T09:37:18.697Z,36.80
2019-01-08T09:39:49.385Z,34.47
2019-01-08T09:42:20.044Z,34.90
2019-01-08T09:44:50.765Z,37.23
2019-01-08T09:47:21.674Z,35.73
2019-01-08T09:49:53.023Z,36.90
2019-01-08T09:52:23.741Z,35.90
2019-01-08T09:54:54.376Z,36.67
2019-01-08T09:57:25.055Z,33.47
2019-01-08T09:59:56.020Z,33.90
2019-01-08T10:02:26.778Z,31.83
2019-01-08T10:04:57.502Z,31.50
2019-01-08T10:07:27.978Z,33.47
2019-01-08T10:09:58.946Z,34.53
2019-01-08T10:12:29.504Z,32.73
2019-01-08T10:14:59.958Z,34.37
2019-01-08T10:17:30.482Z,33.63
2019-01-08T10:20:01.990Z,33.63
2019-01-08T10:22:32.531Z,32.43
2019-01-08T10:25:03.049Z,27.30
2019-01-08T10:27:33.656Z,30.77
2019-01-08T10:30:04.268Z,31.37
2019-01-08T10:32:35.303Z,36.97
2019-01-08T10:35:06.206Z,33.07
2019-01-08T10:37:36.841Z,32.67
2019-01-08T10:40:08.137Z,33.00
2019-01-08T10:42:38.793Z,34.23
2019-01-08T10:45:09.383Z,32.47
2019-01-08T10:47:40.149Z,41.13
2019-01-08T10:50:11.849Z,81.23
2019-01-08T10:52:42.384Z,46.67
2019-01-08T10:55:12.863Z,35.37
2019-01-08T10:57:43.475Z,34.03
2019-01-08T11:00:14.020Z,33.50
2019-01-08T11:02:44.665Z,33.87
2019-01-08T11:05:15.241Z,33.23
2019-01-08T11:07:45.771Z,31.03
2019-01-08T11:10:16.377Z,32.27
2019-01-08T11:12:46.922Z,33.83
2019-01-08T11:15:18.458Z,34.93
2019-01-08T11:17:49.127Z,35.33
2019-01-08T11:20:19.842Z,31.40
2019-01-08T11:22:50.424Z,32.93
2019-01-08T11:25:21.260Z,31.27
2019-01-08T11:27:51.828Z,30.33
2019-01-08T11:30:22.664Z,30.77
2019-01-08T11:32:54.810Z,29.63
2019-01-08T11:35:25.519Z,30.50
2019-01-08T11:37:55.951Z,30.47
2019-01-08T11:40:26.840Z,31.23
2019-01-08T11:42:57.334Z,30.53
2019-01-08T11:45:27.880Z,30.37
2019-01-08T11:48:03.902Z,29.67
2019-01-08T11:50:32.794Z,29.80
2019-01-08T11:53:03.321Z,28.17
2019-01-08T11:55:33.858Z,30.40
2019-01-08T11:58:04.327Z,27.90
2019-01-08T12:00:34.983Z,32.20
2019-01-08T12:03:05.660Z,29.60
2019-01-08T12:05:36.489Z,30.00
2019-01-08T12:08:06.930Z,29.47
2019-01-08T12:10:37.704Z,28.77
2019-01-08T12:13:08.175Z,29.27
2019-01-08T12:15:39.450Z,28.77
2019-01-08T12:18:10.348Z,32.43
2019-01-08T12:20:41.243Z,31.53
2019-01-08T12:23:11.715Z,30.37
2019-01-08T12:25:42.375Z,31.50
2019-01-08T12:28:12.839Z,33.87
2019-01-08T12:30:43.391Z,31.70
2019-01-08T12:33:13.931Z,37.20
2019-01-08T12:35:45.859Z,32.37
2019-01-08T12:38:20.055Z,31.70
2019-01-08T12:40:50.938Z,32.50
2019-01-08T12:43:21.470Z,28.83
2019-01-08T12:45:52.089Z,29.77
2019-01-08T12:48:23.695Z,30.20
2019-01-08T12:50:54.277Z,30.20
2019-01-08T12:53:24.825Z,30.87
2019-01-08T12:55:55.352Z,31.13
2019-01-08T12:58:26.063Z,32.50
2019-01-08T13:00:56.714Z,32.17
2019-01-08T13:03:27.655Z,31.80
2019-01-08T13:05:58.244Z,32.13
2019-01-08T13:08:29.032Z,31.03
2019-01-08T13:10:59.572Z,32.00
2019-01-08T13:13:30.196Z,31.97
2019-01-08T13:16:00.750Z,31.17
2019-01-08T13:18:31.333Z,32.13
2019-01-08T13:21:01.954Z,32.87
2019-01-08T13:23:32.843Z,32.03
2019-01-08T13:26:03.349Z,33.60
2019-01-08T13:28:34.168Z,32.90
2019-01-08T13:31:05.083Z,33.23
2019-01-08T13:33:35.797Z,33.73
2019-01-08T13:36:07.026Z,29.13
2019-01-08T13:38:37.534Z,29.70
2019-01-08T13:41:08.450Z,32.27
2019-01-08T13:43:39.155Z,30.27
2019-01-08T13:46:09.689Z,29.30
2019-01-08T13:48:40.594Z,31.87
2019-01-08T13:51:11.253Z,31.33
2019-01-08T13:53:42.131Z,29.77
2019-01-08T13:56:12.864Z,33.13
2019-01-08T13:58:43.415Z,35.40
2019-01-08T14:01:13.942Z,35.63
2019-01-08T14:03:44.644Z,34.17
2019-01-08T14:06:15.352Z,35.53
2019-01-08T14:08:45.881Z,33.77
2019-01-08T14:11:16.441Z,37.90
2019-01-08T14:13:47.507Z,41.87
2019-01-08T14:16:18.055Z,34.53
2019-01-08T14:18:49.814Z,38.23
2019-01-08T14:21:20.301Z,38.40
2019-01-08T14:23:50.994Z,38.90
2019-01-08T14:26:21.730Z,36.60
2019-01-08T14:28:52.368Z,35.10
2019-01-08T14:31:23.320Z,37.50
2019-01-08T14:33:53.874Z,37.43
2019-01-08T14:36:24.584Z,38.50
2019-01-08T14:38:55.140Z,33.20
2019-01-08T14:41:25.898Z,35.33
2019-01-08T14:44:05.308Z,33.53
2019-01-08T14:46:36.091Z,30.37
2019-01-08T14:49:06.646Z,29.93
2019-01-08T14:51:37.348Z,30.33
2019-01-08T14:54:16.840Z,28.63
2019-01-08T14:56:47.482Z,29.67
2019-01-08T14:59:17.986Z,28.93
2019-01-08T15:01:49.084Z,27.47
2019-01-08T15:04:19.570Z,27.83
2019-01-08T15:06:50.154Z,27.70
2019-01-08T15:09:20.755Z,27.63
2019-01-08T15:11:51.333Z,27.53
2019-01-08T15:14:21.997Z,28.17
2019-01-08T15:16:52.865Z,27.50
2019-01-08T15:19:23.321Z,28.33
2019-01-08T15:21:54.132Z,27.87
2019-01-08T15:24:24.679Z,28.13
2019-01-08T15:26:55.333Z,26.90
2019-01-08T15:29:25.848Z,28.47
2019-01-08T15:31:56.389Z,30.03
2019-01-08T15:34:27.035Z,28.30
2019-01-08T15:36:57.843Z,28.63
2019-01-08T15:39:28.539Z,29.63
2019-01-08T15:41:59.063Z,30.20
2019-01-08T15:45:32.988Z,31.47
2019-01-08T15:48:05.306Z,28.67
2019-01-08T15:50:35.723Z,29.40
2019-01-08T15:53:06.264Z,29.67
2019-01-08T15:55:36.960Z,32.17
2019-01-08T15:58:07.490Z,32.87
2019-01-08T16:00:38.013Z,32.53
2019-01-08T16:03:08.512Z,37.97
2019-01-08T16:05:39.129Z,32.73
2019-01-08T16:08:10.052Z,38.70
2019-01-08T16:10:40.646Z,35.37
2019-01-08T16:13:11.228Z,32.20
2019-01-08T16:15:41.818Z,32.90
2019-01-08T16:18:12.390Z,34.37
2019-01-08T16:20:42.868Z,33.37
2019-01-08T16:23:13.625Z,33.73
2019-01-08T16:25:51.620Z,31.60
2019-01-08T16:28:22.209Z,32.37
2019-01-08T16:30:52.783Z,32.23
2019-01-08T16:33:23.656Z,31.77
2019-01-08T16:35:54.222Z,32.33
2019-01-08T16:38:24.830Z,29.67
2019-01-08T16:40:55.590Z,31.80
2019-01-08T16:43:26.175Z,31.70
2019-01-08T16:45:58.341Z,32.83
2019-01-08T16:48:29.240Z,32.43
2019-01-08T16:50:59.767Z,31.37
2019-01-08T16:53:30.707Z,31.70
2019-01-08T16:56:01.151Z,38.27
2019-01-08T16:58:31.751Z,33.60
2019-01-08T17:01:02.173Z,32.70
2019-01-08T17:03:33.048Z,33.30
2019-01-08T17:06:03.491Z,32.43
2019-01-08T17:08:34.331Z,31.53
2019-01-08T17:11:04.921Z,30.83
2019-01-08T17:13:35.965Z,29.97
2019-01-08T17:16:06.729Z,29.20
2019-01-08T17:18:37.505Z,30.00
2019-01-08T17:21:08.112Z,30.60
2019-01-08T17:23:38.945Z,33.30
2019-01-08T17:26:09.563Z,33.90
2019-01-08T17:28:40.171Z,31.77
2019-01-08T17:31:10.809Z,32.33
2019-01-08T17:33:41.433Z,31.33
2019-01-08T17:36:12.132Z,31.90
2019-01-08T17:38:42.664Z,34.13
2019-01-08T17:41:13.553Z,31.63
2019-01-08T17:43:44.459Z,31.47
2019-01-08T17:46:15.346Z,33.77
2019-01-08T17:48:46.208Z,33.43
2019-01-08T17:51:16.816Z,33.77
2019-01-08T17:53:47.738Z,31.73
2019-01-08T17:56:18.432Z,33.80
2019-01-08T17:59:10.840Z,31.43
2019-01-08T18:02:04.412Z,31.97
2019-01-08T18:04:34.981Z,31.77
2019-01-08T18:07:06.590Z,32.83
2019-01-08T18:09:38.187Z,32.50
2019-01-08T18:12:08.704Z,33.30
2019-01-08T18:14:39.258Z,34.10
2019-01-08T18:17:10.256Z,38.00
2019-01-08T18:19:40.838Z,36.53
2019-01-08T18:22:11.649Z,40.07
2019-01-08T18:24:42.371Z,38.17
2019-01-08T18:27:13.521Z,39.77
2019-01-08T18:29:44.021Z,40.27
2019-01-08T18:32:14.629Z,38.77
2019-01-08T18:34:45.682Z,39.23
2019-01-08T18:37:16.349Z,41.20
2019-01-08T18:39:53.725Z,37.10
2019-01-08T18:42:24.554Z,35.60
2019-01-08T18:44:55.119Z,34.67
2019-01-08T18:47:25.717Z,36.47
2019-01-08T18:49:56.347Z,35.97
2019-01-08T18:52:26.861Z,35.83
2019-01-08T18:54:57.697Z,35.60
2019-01-08T18:57:29.753Z,34.40
2019-01-08T19:00:00.209Z,32.33
2019-01-08T19:02:31.455Z,34.43
2019-01-08T19:05:02.369Z,34.23
2019-01-08T19:07:33.100Z,34.57
2019-01-08T19:10:11.048Z,33.37
2019-01-08T19:12:41.969Z,33.90
2019-01-08T19:15:12.983Z,32.70
2019-01-08T19:17:44.186Z,35.57
2019-01-08T19:20:14.850Z,34.47
2019-01-08T19:22:45.930Z,33.57
2019-01-08T19:25:16.936Z,35.07
2019-01-08T19:27:48.398Z,34.37
2019-01-08T19:30:21.002Z,35.20
2019-01-08T19:32:52.296Z,35.40
2019-01-08T19:35:31.226Z,35.63
2019-01-08T19:37:55.487Z,35.27
2019-01-08T19:40:26.048Z,35.33
2019-01-08T19:42:56.739Z,34.50
2019-01-08T19:45:27.338Z,34.33
2019-01-08T19:47:57.974Z,34.27
2019-01-08T19:50:28.484Z,33.83
2019-01-08T19:52:59.157Z,35.57
2019-01-08T19:55:29.755Z,35.20
2019-01-08T19:58:00.341Z,32.97
2019-01-08T20:00:30.850Z,35.07
2019-01-08T20:03:01.813Z,33.73
2019-01-08T20:05:32.397Z,34.40
2019-01-08T20:08:02.976Z,35.57
2019-01-08T20:10:34.074Z,34.23
2019-01-08T20:13:04.599Z,35.97
2019-01-08T20:15:35.549Z,34.63
2019-01-08T20:18:06.517Z,38.27
2019-01-08T20:20:37.075Z,35.40
2019-01-08T20:23:07.751Z,37.67
2019-01-08T20:25:38.282Z,35.53
2019-01-08T20:28:08.969Z,36.77
2019-01-08T20:30:39.568Z,35.87
2019-01-08T20:33:10.195Z,35.67
2019-01-08T20:35:41.125Z,37.03
2019-01-08T20:38:12.107Z,35.37
2019-01-08T20:40:42.638Z,36.10
2019-01-08T20:43:13.547Z,34.90
2019-01-08T20:45:44.212Z,35.30
2019-01-08T20:48:16.475Z,33.93
2019-01-08T20:50:47.383Z,36.17
2019-01-08T20:53:18.009Z,35.83
2019-01-08T20:55:50.185Z,35.17
2019-01-08T20:58:27.560Z,36.33
2019-01-08T21:00:52.907Z,35.00
2019-01-08T21:03:23.632Z,34.90
2019-01-08T21:05:54.417Z,35.00
2019-01-08T21:08:25.499Z,34.97
2019-01-08T21:10:56.276Z,33.10
2019-01-08T21:13:27.280Z,35.03
2019-01-08T21:15:58.015Z,36.90
2019-01-08T21:18:28.992Z,35.67
2019-01-08T21:21:00.204Z,33.87
2019-01-08T21:23:30.930Z,33.57
2019-01-08T21:26:01.460Z,34.67
2019-01-08T21:28:32.107Z,35.93
2019-01-08T21:31:02.646Z,32.87
2019-01-08T21:33:33.409Z,35.83
2019-01-08T21:36:03.910Z,35.50
2019-01-08T21:38:34.586Z,35.60
2019-01-08T21:41:06.269Z,36.00
2019-01-08T21:43:37.081Z,36.83
2019-01-08T21:46:07.676Z,36.37
2019-01-08T21:48:38.625Z,38.93
2019-01-08T21:51:09.310Z,37.70
2019-01-08T21:53:39.820Z,38.63
2019-01-08T21:56:12.791Z,36.13
2019-01-08T21:58:43.601Z,34.00
2019-01-08T22:01:14.417Z,35.30
2019-01-08T22:03:45.428Z,35.00
2019-01-08T22:06:16.164Z,34.63
2019-01-08T22:08:46.735Z,37.37
2019-01-08T22:11:17.946Z,35.17
2019-01-08T22:13:48.420Z,33.53
2019-01-08T22:16:19.343Z,33.37
2019-01-08T22:18:49.951Z,32.63
2019-01-08T22:21:20.459Z,35.23
2019-01-08T22:23:51.055Z,34.03
2019-01-08T22:26:21.583Z,31.97
2019-01-08T22:28:52.684Z,33.63
2019-01-08T22:31:23.217Z,34.63
2019-01-08T22:33:53.773Z,33.37
2019-01-08T22:36:24.499Z,32.20
2019-01-08T22:38:55.131Z,33.57
2019-01-08T22:41:25.632Z,33.50
2019-01-08T22:43:57.466Z,35.33
2019-01-08T22:46:28.006Z,36.43
2019-01-08T22:48:58.685Z,33.80
2019-01-08T22:51:29.338Z,33.50
2019-01-08T22:53:59.918Z,31.33
2019-01-08T22:56:30.484Z,30.43
2019-01-08T22:59:01.258Z,33.27
2019-01-08T23:01:36.810Z,29.87
2019-01-08T23:04:09.228Z,33.00
2019-01-08T23:06:40.158Z,33.60
2019-01-08T23:09:11.634Z,32.80
2019-01-08T23:11:42.431Z,30.63
2019-01-08T23:14:13.194Z,32.03
2019-01-08T23:16:44.127Z,32.90
2019-01-08T23:19:14.664Z,31.17
2019-01-08T23:21:45.296Z,31.40
2019-01-08T23:24:15.822Z,30.60
2019-01-08T23:26:46.625Z,31.53
2019-01-08T23:29:17.088Z,31.37
2019-01-08T23:31:47.707Z,31.27
2019-01-08T23:34:19.799Z,31.47
2019-01-08T23:36:50.373Z,29.27
2019-01-08T23:39:22.792Z,31.17
2019-01-08T23:41:54.095Z,31.07
2019-01-08T23:44:24.926Z,31.03
2019-01-08T23:46:55.459Z,31.87
2019-01-08T23:49:25.961Z,30.20
2019-01-08T23:52:08.729Z,29.93
2019-01-08T23:54:41.341Z,29.93
2019-01-08T23:57:12.350Z,29.30
2019-01-08T23:59:52.215Z,31.27
